sensor_id;sensor_type;location;lat;lon;timestamp;P1;durP1;ratioP1;P2;durP2;ratioP2
6667;SDS011;3370;47.712;9.082;2022-10-10T00:01:23;9.03;;;6.60;;
6667;SDS011;3370;47.712;9.082;2022-10-10T00:03:51;9.07;;;6.80;;
6667;SDS011;3370;47.712;9.082;2022-10-10T00:06:18;9.40;;;7.10;;
6667;SDS011;3370;47.712;9.082;2022-10-10T00:08:45;10.23;;;6.67;;
6667;SDS011;3370;47.712;9.082;2022-10-10T00:11:12;8.87;;;6.53;;
6667;SDS011;3370;47.712;9.082;2022-10-10T00:13:40;10.10;;;7.40;;
6667;SDS011;3370;47.712;9.082;2022-10-10T00:16:07;10.27;;;6.97;;
6667;SDS011;3370;47.712;9.082;2022-10-10T00:18:34;9.83;;;6.60;;
6667;SDS011;3370;47.712;9.082;2022-10-10T00:21:01;8.67;;;6.30;;
6667;SDS011;3370;47.712;9.082;2022-10-10T00:23:27;9.70;;;6.00;;
6667;SDS011;3370;47.712;9.082;2022-10-10T00:25:54;14.67;;;6.33;;
6667;SDS011;3370;47.712;9.082;2022-10-10T00:28:19;15.30;;;7.47;;
6667;SDS011;3370;47.712;9.082;2022-10-10T00:30:45;7.50;;;6.60;;
6667;SDS011;3370;47.712;9.082;2022-10-10T00:33:11;10.13;;;7.30;;
6667;SDS011;3370;47.712;9.082;2022-10-10T00:35:38;7.03;;;6.33;;
6667;SDS011;3370;47.712;9.082;2022-10-10T00:38:04;10.07;;;7.07;;
6667;SDS011;3370;47.712;9.082;2022-10-10T00:40:30;11.80;;;6.33;;
6667;SDS011;3370;47.712;9.082;2022-10-10T00:42:57;6.80;;;6.10;;
6667;SDS011;3370;47.712;9.082;2022-10-10T00:48:06;8.10;;;6.30;;
6667;SDS011;3370;47.712;9.082;2022-10-10T00:50:57;8.90;;;6.50;;
6667;SDS011;3370;47.712;9.082;2022-10-10T00:53:41;11.53;;;6.57;;
6667;SDS011;3370;47.712;9.082;2022-10-10T00:56:14;8.20;;;6.73;;
6667;SDS011;3370;47.712;9.082;2022-10-10T00:58:45;7.23;;;6.37;;
6667;SDS011;3370;47.712;9.082;2022-10-10T01:01:14;6.77;;;6.17;;
6667;SDS011;3370;47.712;9.082;2022-10-10T01:03:41;13.40;;;7.90;;
6667;SDS011;3370;47.712;9.082;2022-10-10T01:06:06;10.93;;;7.03;;
6667;SDS011;3370;47.712;9.082;2022-10-10T01:08:33;8.90;;;6.47;;
6667;SDS011;3370;47.712;9.082;2022-10-10T01:16:45;11.73;;;7.80;;
6667;SDS011;3370;47.712;9.082;2022-10-10T01:19:35;10.63;;;6.90;;
6667;SDS011;3370;47.712;9.082;2022-10-10T01:22:31;12.03;;;8.00;;
6667;SDS011;3370;47.712;9.082;2022-10-10T01:25:30;10.67;;;7.37;;
6667;SDS011;3370;47.712;9.082;2022-10-10T01:31:01;8.10;;;7.30;;
6667;SDS011;3370;47.712;9.082;2022-10-10T01:33:35;9.17;;;7.80;;
6667;SDS011;3370;47.712;9.082;2022-10-10T01:39:08;12.77;;;8.00;;
6667;SDS011;3370;47.712;9.082;2022-10-10T01:42:09;11.70;;;7.53;;
6667;SDS011;3370;47.712;9.082;2022-10-10T01:44:54;18.67;;;7.83;;
6667;SDS011;3370;47.712;9.082;2022-10-10T01:47:20;11.20;;;7.40;;
6667;SDS011;3370;47.712;9.082;2022-10-10T01:49:46;7.80;;;7.00;;
6667;SDS011;3370;47.712;9.082;2022-10-10T01:52:38;11.80;;;7.00;;
6667;SDS011;3370;47.712;9.082;2022-10-10T02:01:15;10.70;;;7.50;;
6667;SDS011;3370;47.712;9.082;2022-10-10T02:03:50;9.20;;;7.10;;
6667;SDS011;3370;47.712;9.082;2022-10-10T02:06:33;8.03;;;7.13;;
6667;SDS011;3370;47.712;9.082;2022-10-10T02:09:32;10.40;;;7.30;;
6667;SDS011;3370;47.712;9.082;2022-10-10T02:12:04;9.80;;;8.10;;
6667;SDS011;3370;47.712;9.082;2022-10-10T02:14:39;8.30;;;7.50;;
6667;SDS011;3370;47.712;9.082;2022-10-10T02:17:11;10.40;;;9.27;;
6667;SDS011;3370;47.712;9.082;2022-10-10T02:19:49;11.57;;;9.07;;
6667;SDS011;3370;47.712;9.082;2022-10-10T02:22:22;12.80;;;7.70;;
6667;SDS011;3370;47.712;9.082;2022-10-10T02:24:50;9.80;;;8.07;;
6667;SDS011;3370;47.712;9.082;2022-10-10T02:27:32;12.67;;;7.53;;
6667;SDS011;3370;47.712;9.082;2022-10-10T02:30:10;11.87;;;8.20;;
6667;SDS011;3370;47.712;9.082;2022-10-10T02:32:39;10.27;;;8.77;;
6667;SDS011;3370;47.712;9.082;2022-10-10T02:35:17;14.50;;;9.13;;
6667;SDS011;3370;47.712;9.082;2022-10-10T02:37:49;16.90;;;8.27;;
6667;SDS011;3370;47.712;9.082;2022-10-10T02:40:19;15.00;;;9.20;;
6667;SDS011;3370;47.712;9.082;2022-10-10T02:42:49;12.70;;;8.93;;
6667;SDS011;3370;47.712;9.082;2022-10-10T02:45:16;13.43;;;8.70;;
6667;SDS011;3370;47.712;9.082;2022-10-10T02:47:44;9.30;;;8.40;;
6667;SDS011;3370;47.712;9.082;2022-10-10T02:50:11;10.90;;;9.13;;
6667;SDS011;3370;47.712;9.082;2022-10-10T02:52:37;15.00;;;8.63;;
6667;SDS011;3370;47.712;9.082;2022-10-10T02:55:03;9.10;;;7.67;;
6667;SDS011;3370;47.712;9.082;2022-10-10T02:57:29;11.13;;;8.60;;
6667;SDS011;3370;47.712;9.082;2022-10-10T02:59:55;10.43;;;8.37;;
6667;SDS011;3370;47.712;9.082;2022-10-10T03:02:21;9.97;;;8.30;;
6667;SDS011;3370;47.712;9.082;2022-10-10T03:04:47;12.60;;;7.60;;
6667;SDS011;3370;47.712;9.082;2022-10-10T03:07:13;10.00;;;8.53;;
6667;SDS011;3370;47.712;9.082;2022-10-10T03:09:39;19.03;;;8.23;;
6667;SDS011;3370;47.712;9.082;2022-10-10T03:12:04;10.93;;;8.40;;
6667;SDS011;3370;47.712;9.082;2022-10-10T03:14:30;11.87;;;8.50;;
6667;SDS011;3370;47.712;9.082;2022-10-10T03:16:56;10.00;;;8.30;;
6667;SDS011;3370;47.712;9.082;2022-10-10T03:19:23;8.70;;;7.80;;
6667;SDS011;3370;47.712;9.082;2022-10-10T03:21:49;8.80;;;7.43;;
6667;SDS011;3370;47.712;9.082;2022-10-10T03:24:14;8.90;;;8.00;;
6667;SDS011;3370;47.712;9.082;2022-10-10T03:26:40;14.37;;;8.70;;
6667;SDS011;3370;47.712;9.082;2022-10-10T03:29:06;9.40;;;7.60;;
6667;SDS011;3370;47.712;9.082;2022-10-10T03:31:32;11.30;;;7.73;;
6667;SDS011;3370;47.712;9.082;2022-10-10T03:33:58;15.47;;;9.00;;
6667;SDS011;3370;47.712;9.082;2022-10-10T03:36:24;10.90;;;8.57;;
6667;SDS011;3370;47.712;9.082;2022-10-10T03:38:50;14.73;;;8.90;;
6667;SDS011;3370;47.712;9.082;2022-10-10T03:41:16;15.00;;;8.43;;
6667;SDS011;3370;47.712;9.082;2022-10-10T03:43:42;8.00;;;7.20;;
6667;SDS011;3370;47.712;9.082;2022-10-10T03:46:08;18.83;;;9.20;;
6667;SDS011;3370;47.712;9.082;2022-10-10T03:48:34;12.80;;;8.53;;
6667;SDS011;3370;47.712;9.082;2022-10-10T03:51:00;11.53;;;8.33;;
6667;SDS011;3370;47.712;9.082;2022-10-10T03:53:25;13.47;;;8.20;;
6667;SDS011;3370;47.712;9.082;2022-10-10T03:55:51;13.73;;;8.53;;
6667;SDS011;3370;47.712;9.082;2022-10-10T03:58:19;10.77;;;9.30;;
6667;SDS011;3370;47.712;9.082;2022-10-10T04:00:51;23.07;;;9.67;;
6667;SDS011;3370;47.712;9.082;2022-10-10T04:03:22;13.13;;;8.83;;
6667;SDS011;3370;47.712;9.082;2022-10-10T04:05:48;14.47;;;9.90;;
6667;SDS011;3370;47.712;9.082;2022-10-10T04:08:14;14.13;;;10.33;;
6667;SDS011;3370;47.712;9.082;2022-10-10T04:10:40;15.10;;;10.53;;
6667;SDS011;3370;47.712;9.082;2022-10-10T04:13:06;12.00;;;8.73;;
6667;SDS011;3370;47.712;9.082;2022-10-10T04:15:32;16.40;;;9.00;;
6667;SDS011;3370;47.712;9.082;2022-10-10T04:17:58;10.43;;;9.27;;
6667;SDS011;3370;47.712;9.082;2022-10-10T04:20:24;11.87;;;8.97;;
6667;SDS011;3370;47.712;9.082;2022-10-10T04:22:51;19.70;;;13.60;;
6667;SDS011;3370;47.712;9.082;2022-10-10T04:25:17;21.20;;;11.13;;
6667;SDS011;3370;47.712;9.082;2022-10-10T04:27:43;11.20;;;9.00;;
6667;SDS011;3370;47.712;9.082;2022-10-10T04:30:08;14.27;;;10.20;;
6667;SDS011;3370;47.712;9.082;2022-10-10T04:32:35;13.13;;;8.97;;
6667;SDS011;3370;47.712;9.082;2022-10-10T04:35:02;10.20;;;9.20;;
6667;SDS011;3370;47.712;9.082;2022-10-10T04:37:29;14.73;;;9.00;;
6667;SDS011;3370;47.712;9.082;2022-10-10T04:39:55;12.30;;;9.50;;
6667;SDS011;3370;47.712;9.082;2022-10-10T04:42:21;13.50;;;10.47;;
6667;SDS011;3370;47.712;9.082;2022-10-10T04:44:47;25.93;;;9.70;;
6667;SDS011;3370;47.712;9.082;2022-10-10T04:47:13;11.33;;;8.90;;
6667;SDS011;3370;47.712;9.082;2022-10-10T04:49:39;22.13;;;8.90;;
6667;SDS011;3370;47.712;9.082;2022-10-10T04:52:08;10.63;;;8.77;;
6667;SDS011;3370;47.712;9.082;2022-10-10T04:54:34;12.50;;;9.63;;
6667;SDS011;3370;47.712;9.082;2022-10-10T04:57:01;14.20;;;9.10;;
6667;SDS011;3370;47.712;9.082;2022-10-10T04:59:27;14.00;;;8.00;;
6667;SDS011;3370;47.712;9.082;2022-10-10T05:01:53;15.47;;;8.40;;
6667;SDS011;3370;47.712;9.082;2022-10-10T05:04:18;13.60;;;8.30;;
6667;SDS011;3370;47.712;9.082;2022-10-10T05:06:44;12.90;;;9.10;;
6667;SDS011;3370;47.712;9.082;2022-10-10T05:09:10;16.00;;;9.50;;
6667;SDS011;3370;47.712;9.082;2022-10-10T05:11:36;14.23;;;9.70;;
6667;SDS011;3370;47.712;9.082;2022-10-10T05:14:02;11.30;;;8.00;;
6667;SDS011;3370;47.712;9.082;2022-10-10T05:16:28;19.37;;;10.80;;
6667;SDS011;3370;47.712;9.082;2022-10-10T05:18:54;18.37;;;10.03;;
6667;SDS011;3370;47.712;9.082;2022-10-10T05:21:22;17.90;;;11.07;;
6667;SDS011;3370;47.712;9.082;2022-10-10T05:23:48;14.23;;;10.87;;
6667;SDS011;3370;47.712;9.082;2022-10-10T05:26:14;15.63;;;11.60;;
6667;SDS011;3370;47.712;9.082;2022-10-10T05:28:40;13.80;;;10.17;;
6667;SDS011;3370;47.712;9.082;2022-10-10T05:31:06;15.03;;;9.60;;
6667;SDS011;3370;47.712;9.082;2022-10-10T05:33:32;11.03;;;9.47;;
6667;SDS011;3370;47.712;9.082;2022-10-10T05:36:09;13.10;;;10.70;;
6667;SDS011;3370;47.712;9.082;2022-10-10T05:38:37;15.33;;;10.27;;
6667;SDS011;3370;47.712;9.082;2022-10-10T05:41:05;18.00;;;11.20;;
6667;SDS011;3370;47.712;9.082;2022-10-10T05:43:31;14.97;;;11.10;;
6667;SDS011;3370;47.712;9.082;2022-10-10T05:45:59;14.00;;;10.60;;
6667;SDS011;3370;47.712;9.082;2022-10-10T05:48:25;15.27;;;10.60;;
6667;SDS011;3370;47.712;9.082;2022-10-10T05:50:53;13.83;;;10.87;;
6667;SDS011;3370;47.712;9.082;2022-10-10T05:53:21;14.30;;;11.03;;
6667;SDS011;3370;47.712;9.082;2022-10-10T05:55:48;14.63;;;10.10;;
6667;SDS011;3370;47.712;9.082;2022-10-10T05:58:14;16.37;;;10.43;;
6667;SDS011;3370;47.712;9.082;2022-10-10T06:00:41;12.20;;;9.50;;
6667;SDS011;3370;47.712;9.082;2022-10-10T06:03:08;12.37;;;10.50;;
6667;SDS011;3370;47.712;9.082;2022-10-10T06:05:39;14.37;;;10.60;;
6667;SDS011;3370;47.712;9.082;2022-10-10T06:08:05;13.80;;;10.73;;
6667;SDS011;3370;47.712;9.082;2022-10-10T06:10:35;15.70;;;9.60;;
6667;SDS011;3370;47.712;9.082;2022-10-10T06:13:04;15.60;;;12.50;;
6667;SDS011;3370;47.712;9.082;2022-10-10T06:15:30;15.90;;;11.90;;
6667;SDS011;3370;47.712;9.082;2022-10-10T06:17:56;17.23;;;11.70;;
6667;SDS011;3370;47.712;9.082;2022-10-10T06:20:22;13.73;;;11.07;;
6667;SDS011;3370;47.712;9.082;2022-10-10T06:22:48;19.73;;;12.50;;
6667;SDS011;3370;47.712;9.082;2022-10-10T06:25:14;20.93;;;13.90;;
6667;SDS011;3370;47.712;9.082;2022-10-10T06:27:52;17.70;;;13.37;;
6667;SDS011;3370;47.712;9.082;2022-10-10T06:30:18;17.83;;;13.30;;
6667;SDS011;3370;47.712;9.082;2022-10-10T06:32:44;21.93;;;11.80;;
6667;SDS011;3370;47.712;9.082;2022-10-10T06:35:10;17.00;;;12.57;;
6667;SDS011;3370;47.712;9.082;2022-10-10T06:37:36;19.73;;;13.00;;
6667;SDS011;3370;47.712;9.082;2022-10-10T06:40:02;17.27;;;13.20;;
6667;SDS011;3370;47.712;9.082;2022-10-10T06:42:28;16.87;;;13.13;;
6667;SDS011;3370;47.712;9.082;2022-10-10T06:44:54;26.17;;;14.63;;
6667;SDS011;3370;47.712;9.082;2022-10-10T06:47:19;21.43;;;15.00;;
6667;SDS011;3370;47.712;9.082;2022-10-10T06:49:45;20.50;;;14.33;;
6667;SDS011;3370;47.712;9.082;2022-10-10T06:52:11;26.57;;;14.50;;
6667;SDS011;3370;47.712;9.082;2022-10-10T06:54:37;18.50;;;14.23;;
6667;SDS011;3370;47.712;9.082;2022-10-10T06:57:03;22.37;;;14.60;;
6667;SDS011;3370;47.712;9.082;2022-10-10T06:59:29;19.60;;;14.57;;
6667;SDS011;3370;47.712;9.082;2022-10-10T07:01:55;21.60;;;14.77;;
6667;SDS011;3370;47.712;9.082;2022-10-10T07:04:20;20.93;;;14.53;;
6667;SDS011;3370;47.712;9.082;2022-10-10T07:06:46;25.53;;;14.20;;
6667;SDS011;3370;47.712;9.082;2022-10-10T07:09:12;19.57;;;14.20;;
6667;SDS011;3370;47.712;9.082;2022-10-10T07:11:38;25.13;;;15.00;;
6667;SDS011;3370;47.712;9.082;2022-10-10T07:14:09;28.50;;;14.60;;
6667;SDS011;3370;47.712;9.082;2022-10-10T07:16:36;20.20;;;13.60;;
6667;SDS011;3370;47.712;9.082;2022-10-10T07:19:02;21.20;;;15.90;;
6667;SDS011;3370;47.712;9.082;2022-10-10T07:21:28;24.80;;;16.47;;
6667;SDS011;3370;47.712;9.082;2022-10-10T07:23:53;21.73;;;15.97;;
6667;SDS011;3370;47.712;9.082;2022-10-10T07:26:19;21.83;;;16.23;;
6667;SDS011;3370;47.712;9.082;2022-10-10T07:28:47;21.57;;;16.23;;
6667;SDS011;3370;47.712;9.082;2022-10-10T07:31:13;22.73;;;16.13;;
6667;SDS011;3370;47.712;9.082;2022-10-10T07:33:40;26.00;;;18.03;;
6667;SDS011;3370;47.712;9.082;2022-10-10T07:36:09;20.80;;;16.03;;
6667;SDS011;3370;47.712;9.082;2022-10-10T07:38:35;20.53;;;15.13;;
6667;SDS011;3370;47.712;9.082;2022-10-10T07:41:05;23.07;;;15.03;;
6667;SDS011;3370;47.712;9.082;2022-10-10T07:43:33;20.97;;;14.50;;
6667;SDS011;3370;47.712;9.082;2022-10-10T07:46:01;20.93;;;14.27;;
6667;SDS011;3370;47.712;9.082;2022-10-10T07:48:28;17.27;;;12.80;;
6667;SDS011;3370;47.712;9.082;2022-10-10T07:50:56;18.10;;;14.10;;
6667;SDS011;3370;47.712;9.082;2022-10-10T07:53:22;24.50;;;13.80;;
6667;SDS011;3370;47.712;9.082;2022-10-10T07:55:48;25.57;;;13.20;;
6667;SDS011;3370;47.712;9.082;2022-10-10T07:58:14;17.43;;;12.70;;
6667;SDS011;3370;47.712;9.082;2022-10-10T08:00:40;22.50;;;14.30;;
6667;SDS011;3370;47.712;9.082;2022-10-10T08:03:07;30.27;;;14.80;;
6667;SDS011;3370;47.712;9.082;2022-10-10T08:05:37;17.90;;;13.47;;
6667;SDS011;3370;47.712;9.082;2022-10-10T08:08:10;28.27;;;14.67;;
6667;SDS011;3370;47.712;9.082;2022-10-10T08:10:36;17.27;;;13.47;;
6667;SDS011;3370;47.712;9.082;2022-10-10T08:13:06;25.57;;;15.40;;
6667;SDS011;3370;47.712;9.082;2022-10-10T08:15:32;21.13;;;15.07;;
6667;SDS011;3370;47.712;9.082;2022-10-10T08:17:58;20.83;;;15.40;;
6667;SDS011;3370;47.712;9.082;2022-10-10T08:20:24;21.83;;;15.87;;
6667;SDS011;3370;47.712;9.082;2022-10-10T08:22:50;21.10;;;14.90;;
6667;SDS011;3370;47.712;9.082;2022-10-10T08:25:16;22.50;;;15.60;;
6667;SDS011;3370;47.712;9.082;2022-10-10T08:27:41;19.53;;;17.00;;
6667;SDS011;3370;47.712;9.082;2022-10-10T08:30:07;26.47;;;17.17;;
6667;SDS011;3370;47.712;9.082;2022-10-10T08:32:33;22.70;;;15.90;;
6667;SDS011;3370;47.712;9.082;2022-10-10T08:34:59;20.33;;;14.90;;
6667;SDS011;3370;47.712;9.082;2022-10-10T08:37:25;25.77;;;16.70;;
6667;SDS011;3370;47.712;9.082;2022-10-10T08:39:51;18.83;;;13.67;;
6667;SDS011;3370;47.712;9.082;2022-10-10T08:42:21;19.07;;;15.40;;
6667;SDS011;3370;47.712;9.082;2022-10-10T08:45:07;21.73;;;15.57;;
6667;SDS011;3370;47.712;9.082;2022-10-10T08:47:50;25.50;;;17.00;;
6667;SDS011;3370;47.712;9.082;2022-10-10T08:50:47;21.67;;;15.47;;
6667;SDS011;3370;47.712;9.082;2022-10-10T08:53:25;21.10;;;16.37;;
6667;SDS011;3370;47.712;9.082;2022-10-10T08:55:58;20.17;;;15.13;;
6667;SDS011;3370;47.712;9.082;2022-10-10T08:58:32;25.63;;;15.70;;
6667;SDS011;3370;47.712;9.082;2022-10-10T09:01:04;22.37;;;15.30;;
6667;SDS011;3370;47.712;9.082;2022-10-10T09:03:45;17.57;;;13.87;;
6667;SDS011;3370;47.712;9.082;2022-10-10T09:09:07;24.10;;;15.50;;
6667;SDS011;3370;47.712;9.082;2022-10-10T09:21:10;17.43;;;13.90;;
6667;SDS011;3370;47.712;9.082;2022-10-10T09:24:13;22.17;;;15.10;;
6667;SDS011;3370;47.712;9.082;2022-10-10T09:26:55;19.30;;;13.40;;
6667;SDS011;3370;47.712;9.082;2022-10-10T09:35:32;20.30;;;14.73;;
6667;SDS011;3370;47.712;9.082;2022-10-10T09:40:54;17.67;;;15.07;;
6667;SDS011;3370;47.712;9.082;2022-10-10T09:43:38;18.43;;;15.00;;
6667;SDS011;3370;47.712;9.082;2022-10-10T09:46:05;16.57;;;13.80;;
6667;SDS011;3370;47.712;9.082;2022-10-10T09:48:38;20.83;;;15.77;;
6667;SDS011;3370;47.712;9.082;2022-10-10T09:51:10;16.27;;;14.57;;
6667;SDS011;3370;47.712;9.082;2022-10-10T09:53:40;18.40;;;15.30;;
6667;SDS011;3370;47.712;9.082;2022-10-10T09:56:13;18.40;;;14.77;;
6667;SDS011;3370;47.712;9.082;2022-10-10T09:59:04;30.43;;;16.77;;
6667;SDS011;3370;47.712;9.082;2022-10-10T10:01:30;18.63;;;13.40;;
6667;SDS011;3370;47.712;9.082;2022-10-10T10:06:34;18.40;;;14.90;;
6667;SDS011;3370;47.712;9.082;2022-10-10T10:09:03;22.20;;;16.10;;
6667;SDS011;3370;47.712;9.082;2022-10-10T10:11:31;17.50;;;14.40;;
6667;SDS011;3370;47.712;9.082;2022-10-10T10:14:00;17.83;;;14.50;;
6667;SDS011;3370;47.712;9.082;2022-10-10T10:16:30;16.97;;;13.90;;
6667;SDS011;3370;47.712;9.082;2022-10-10T10:19:01;18.30;;;15.00;;
6667;SDS011;3370;47.712;9.082;2022-10-10T10:21:28;17.23;;;13.40;;
6667;SDS011;3370;47.712;9.082;2022-10-10T10:24:00;17.60;;;13.33;;
6667;SDS011;3370;47.712;9.082;2022-10-10T10:26:46;22.40;;;14.33;;
6667;SDS011;3370;47.712;9.082;2022-10-10T10:32:03;16.73;;;14.00;;
6667;SDS011;3370;47.712;9.082;2022-10-10T10:35:19;19.47;;;13.63;;
6667;SDS011;3370;47.712;9.082;2022-10-10T10:40:56;18.03;;;13.93;;
6667;SDS011;3370;47.712;9.082;2022-10-10T10:55:51;15.53;;;13.03;;
6667;SDS011;3370;47.712;9.082;2022-10-10T11:01:19;16.20;;;12.07;;
6667;SDS011;3370;47.712;9.082;2022-10-10T11:04:21;17.40;;;12.80;;
6667;SDS011;3370;47.712;9.082;2022-10-10T11:07:20;14.47;;;10.83;;
6667;SDS011;3370;47.712;9.082;2022-10-10T11:10:08;16.87;;;12.13;;
6667;SDS011;3370;47.712;9.082;2022-10-10T11:15:37;17.30;;;10.03;;
6667;SDS011;3370;47.712;9.082;2022-10-10T11:18:29;11.03;;;9.87;;
6667;SDS011;3370;47.712;9.082;2022-10-10T11:21:21;19.03;;;10.10;;
6667;SDS011;3370;47.712;9.082;2022-10-10T11:23:55;18.17;;;11.17;;
6667;SDS011;3370;47.712;9.082;2022-10-10T11:26:30;13.70;;;9.90;;
6667;SDS011;3370;47.712;9.082;2022-10-10T11:29:31;15.67;;;9.10;;
6667;SDS011;3370;47.712;9.082;2022-10-10T11:32:31;10.67;;;9.60;;
6667;SDS011;3370;47.712;9.082;2022-10-10T11:43:54;9.60;;;7.20;;
6667;SDS011;3370;47.712;9.082;2022-10-10T11:54:40;8.00;;;7.20;;
6667;SDS011;3370;47.712;9.082;2022-10-10T11:57:17;11.37;;;7.70;;
6667;SDS011;3370;47.712;9.082;2022-10-10T11:59:54;8.80;;;7.83;;
6667;SDS011;3370;47.712;9.082;2022-10-10T12:02:51;8.80;;;7.20;;
6667;SDS011;3370;47.712;9.082;2022-10-10T12:05:22;10.07;;;7.43;;
6667;SDS011;3370;47.712;9.082;2022-10-10T12:08:06;10.30;;;8.10;;
6667;SDS011;3370;47.712;9.082;2022-10-10T12:10:45;8.43;;;7.00;;
6667;SDS011;3370;47.712;9.082;2022-10-10T12:16:22;9.50;;;7.30;;
6667;SDS011;3370;47.712;9.082;2022-10-10T12:18:54;12.07;;;7.73;;
6667;SDS011;3370;47.712;9.082;2022-10-10T12:21:24;7.70;;;6.37;;
6667;SDS011;3370;47.712;9.082;2022-10-10T12:24:03;11.87;;;7.37;;
6667;SDS011;3370;47.712;9.082;2022-10-10T12:29:38;11.77;;;7.10;;
6667;SDS011;3370;47.712;9.082;2022-10-10T12:43:18;10.30;;;7.70;;
6667;SDS011;3370;47.712;9.082;2022-10-10T12:48:42;8.27;;;6.30;;
6667;SDS011;3370;47.712;9.082;2022-10-10T12:51:19;8.23;;;7.37;;
6667;SDS011;3370;47.712;9.082;2022-10-10T12:53:48;14.37;;;7.00;;
6667;SDS011;3370;47.712;9.082;2022-10-10T12:56:34;8.80;;;6.57;;
6667;SDS011;3370;47.712;9.082;2022-10-10T12:59:00;7.77;;;6.90;;
6667;SDS011;3370;47.712;9.082;2022-10-10T13:01:31;11.70;;;7.23;;
6667;SDS011;3370;47.712;9.082;2022-10-10T13:04:02;10.00;;;6.83;;
6667;SDS011;3370;47.712;9.082;2022-10-10T13:06:35;12.90;;;7.57;;
6667;SDS011;3370;47.712;9.082;2022-10-10T13:09:14;15.63;;;7.37;;
6667;SDS011;3370;47.712;9.082;2022-10-10T13:12:00;8.30;;;7.03;;
6667;SDS011;3370;47.712;9.082;2022-10-10T13:14:37;13.07;;;6.70;;
6667;SDS011;3370;47.712;9.082;2022-10-10T13:17:26;11.20;;;7.83;;
6667;SDS011;3370;47.712;9.082;2022-10-10T13:20:19;11.70;;;6.80;;
6667;SDS011;3370;47.712;9.082;2022-10-10T13:23:04;9.60;;;6.50;;
6667;SDS011;3370;47.712;9.082;2022-10-10T13:25:38;9.80;;;6.87;;
6667;SDS011;3370;47.712;9.082;2022-10-10T13:28:04;8.63;;;6.73;;
6667;SDS011;3370;47.712;9.082;2022-10-10T13:30:42;9.30;;;6.60;;
6667;SDS011;3370;47.712;9.082;2022-10-10T13:33:18;8.00;;;7.20;;
6667;SDS011;3370;47.712;9.082;2022-10-10T13:35:47;7.73;;;6.97;;
6667;SDS011;3370;47.712;9.082;2022-10-10T13:38:15;14.70;;;7.87;;
6667;SDS011;3370;47.712;9.082;2022-10-10T13:40:47;10.53;;;7.10;;
6667;SDS011;3370;47.712;9.082;2022-10-10T13:43:14;12.67;;;7.00;;
6667;SDS011;3370;47.712;9.082;2022-10-10T13:45:44;15.03;;;7.60;;
6667;SDS011;3370;47.712;9.082;2022-10-10T13:53:49;12.10;;;7.50;;
6667;SDS011;3370;47.712;9.082;2022-10-10T13:56:23;12.80;;;7.40;;
6667;SDS011;3370;47.712;9.082;2022-10-10T14:01:42;11.53;;;7.80;;
6667;SDS011;3370;47.712;9.082;2022-10-10T14:09:50;14.83;;;8.40;;
6667;SDS011;3370;47.712;9.082;2022-10-10T14:12:36;12.33;;;7.87;;
6667;SDS011;3370;47.712;9.082;2022-10-10T14:18:15;10.33;;;7.40;;
6667;SDS011;3370;47.712;9.082;2022-10-10T14:20:50;8.53;;;7.47;;
6667;SDS011;3370;47.712;9.082;2022-10-10T14:23:20;12.23;;;6.93;;
6667;SDS011;3370;47.712;9.082;2022-10-10T14:25:47;13.90;;;7.00;;
6667;SDS011;3370;47.712;9.082;2022-10-10T14:28:18;15.83;;;8.57;;
6667;SDS011;3370;47.712;9.082;2022-10-10T14:30:48;10.67;;;7.50;;
6667;SDS011;3370;47.712;9.082;2022-10-10T14:33:15;10.93;;;7.80;;
6667;SDS011;3370;47.712;9.082;2022-10-10T14:35:43;11.30;;;6.77;;
6667;SDS011;3370;47.712;9.082;2022-10-10T14:38:11;13.97;;;7.83;;
6667;SDS011;3370;47.712;9.082;2022-10-10T14:40:39;11.67;;;7.87;;
6667;SDS011;3370;47.712;9.082;2022-10-10T14:43:07;14.03;;;8.47;;
6667;SDS011;3370;47.712;9.082;2022-10-10T14:45:32;13.20;;;8.73;;
6667;SDS011;3370;47.712;9.082;2022-10-10T14:47:58;10.83;;;7.53;;
6667;SDS011;3370;47.712;9.082;2022-10-10T14:50:26;15.10;;;7.37;;
6667;SDS011;3370;47.712;9.082;2022-10-10T14:52:57;9.70;;;7.00;;
6667;SDS011;3370;47.712;9.082;2022-10-10T14:55:23;10.43;;;6.60;;
6667;SDS011;3370;47.712;9.082;2022-10-10T14:57:49;7.47;;;6.70;;
6667;SDS011;3370;47.712;9.082;2022-10-10T15:00:16;13.03;;;6.93;;
6667;SDS011;3370;47.712;9.082;2022-10-10T15:02:46;7.73;;;6.17;;
6667;SDS011;3370;47.712;9.082;2022-10-10T15:05:12;10.97;;;6.37;;
6667;SDS011;3370;47.712;9.082;2022-10-10T15:07:38;11.13;;;5.73;;
6667;SDS011;3370;47.712;9.082;2022-10-10T15:10:05;9.17;;;5.37;;
6667;SDS011;3370;47.712;9.082;2022-10-10T15:12:33;14.53;;;4.77;;
6667;SDS011;3370;47.712;9.082;2022-10-10T15:15:02;9.90;;;6.10;;
6667;SDS011;3370;47.712;9.082;2022-10-10T15:17:29;7.73;;;4.67;;
6667;SDS011;3370;47.712;9.082;2022-10-10T15:19:57;6.23;;;4.60;;
6667;SDS011;3370;47.712;9.082;2022-10-10T15:22:23;16.20;;;5.77;;
6667;SDS011;3370;47.712;9.082;2022-10-10T15:24:49;17.43;;;5.90;;
6667;SDS011;3370;47.712;9.082;2022-10-10T15:27:15;10.77;;;5.17;;
6667;SDS011;3370;47.712;9.082;2022-10-10T15:29:41;10.73;;;4.93;;
6667;SDS011;3370;47.712;9.082;2022-10-10T15:32:06;7.77;;;5.50;;
6667;SDS011;3370;47.712;9.082;2022-10-10T15:34:32;5.70;;;4.40;;
6667;SDS011;3370;47.712;9.082;2022-10-10T15:36:59;11.00;;;5.30;;
6667;SDS011;3370;47.712;9.082;2022-10-10T15:39:24;9.50;;;5.93;;
6667;SDS011;3370;47.712;9.082;2022-10-10T15:41:50;8.33;;;5.97;;
6667;SDS011;3370;47.712;9.082;2022-10-10T15:44:17;6.23;;;5.13;;
6667;SDS011;3370;47.712;9.082;2022-10-10T15:46:43;9.23;;;4.90;;
6667;SDS011;3370;47.712;9.082;2022-10-10T15:49:10;7.93;;;5.03;;
6667;SDS011;3370;47.712;9.082;2022-10-10T15:51:41;5.90;;;4.43;;
6667;SDS011;3370;47.712;9.082;2022-10-10T15:54:09;6.80;;;4.67;;
6667;SDS011;3370;47.712;9.082;2022-10-10T15:56:35;10.20;;;4.27;;
6667;SDS011;3370;47.712;9.082;2022-10-10T15:59:01;7.33;;;4.43;;
6667;SDS011;3370;47.712;9.082;2022-10-10T16:01:28;7.30;;;4.60;;
6667;SDS011;3370;47.712;9.082;2022-10-10T16:03:55;6.50;;;4.80;;
6667;SDS011;3370;47.712;9.082;2022-10-10T16:06:23;11.30;;;5.40;;
6667;SDS011;3370;47.712;9.082;2022-10-10T16:08:50;8.33;;;5.37;;
6667;SDS011;3370;47.712;9.082;2022-10-10T16:11:21;10.80;;;4.83;;
6667;SDS011;3370;47.712;9.082;2022-10-10T16:13:49;9.90;;;5.50;;
6667;SDS011;3370;47.712;9.082;2022-10-10T16:16:18;11.87;;;6.40;;
6667;SDS011;3370;47.712;9.082;2022-10-10T16:18:46;11.60;;;6.30;;
6667;SDS011;3370;47.712;9.082;2022-10-10T16:21:20;18.70;;;7.20;;
6667;SDS011;3370;47.712;9.082;2022-10-10T16:23:48;9.70;;;6.67;;
6667;SDS011;3370;47.712;9.082;2022-10-10T16:26:16;11.97;;;6.40;;
6667;SDS011;3370;47.712;9.082;2022-10-10T16:28:50;11.43;;;6.87;;
6667;SDS011;3370;47.712;9.082;2022-10-10T16:31:17;9.50;;;6.73;;
6667;SDS011;3370;47.712;9.082;2022-10-10T16:33:44;6.87;;;6.27;;
6667;SDS011;3370;47.712;9.082;2022-10-10T16:36:16;7.20;;;6.50;;
6667;SDS011;3370;47.712;9.082;2022-10-10T16:38:45;11.13;;;7.10;;
6667;SDS011;3370;47.712;9.082;2022-10-10T16:41:13;14.50;;;6.40;;
6667;SDS011;3370;47.712;9.082;2022-10-10T16:43:42;7.27;;;5.87;;
6667;SDS011;3370;47.712;9.082;2022-10-10T16:46:12;16.90;;;6.10;;
6667;SDS011;3370;47.712;9.082;2022-10-10T16:48:43;7.87;;;5.63;;
6667;SDS011;3370;47.712;9.082;2022-10-10T16:51:11;8.97;;;5.57;;
6667;SDS011;3370;47.712;9.082;2022-10-10T16:53:40;5.67;;;5.13;;
6667;SDS011;3370;47.712;9.082;2022-10-10T16:56:07;13.73;;;5.40;;
6667;SDS011;3370;47.712;9.082;2022-10-10T16:58:36;10.43;;;5.10;;
6667;SDS011;3370;47.712;9.082;2022-10-10T17:01:10;6.03;;;5.37;;
6667;SDS011;3370;47.712;9.082;2022-10-10T17:03:46;7.50;;;5.80;;
6667;SDS011;3370;47.712;9.082;2022-10-10T17:06:14;11.13;;;4.53;;
6667;SDS011;3370;47.712;9.082;2022-10-10T17:08:43;7.23;;;4.67;;
6667;SDS011;3370;47.712;9.082;2022-10-10T17:11:10;5.63;;;4.90;;
6667;SDS011;3370;47.712;9.082;2022-10-10T17:13:38;9.20;;;4.90;;
6667;SDS011;3370;47.712;9.082;2022-10-10T17:16:12;7.80;;;5.50;;
6667;SDS011;3370;47.712;9.082;2022-10-10T17:18:43;12.03;;;5.00;;
6667;SDS011;3370;47.712;9.082;2022-10-10T17:21:10;10.60;;;5.33;;
6667;SDS011;3370;47.712;9.082;2022-10-10T17:23:39;5.73;;;5.13;;